Time,TemperatureF,DewpointF,PressureIn,WindDirection,WindDirectionDegrees,WindSpeedMPH,WindSpeedGustMPH,Humidity,HourlyPrecipIn,Conditions,Clouds,dailyrainin,SoftwareType,DateUTC
2013-12-21 00:01:00,35.2,34.2,-100.00,ESE,105,0.0,1.0,96,0.03,,,0.55,meteohub,2013-12-21 05:01:00,
2013-12-21 00:07:00,35.2,34.2,-100.00,SE,125,0.0,1.0,96,0.03,,,0.00,meteohub,2013-12-21 05:07:00,
2013-12-21 00:12:00,35.2,34.2,-100.00,ESE,116,0.0,2.0,96,0.03,,,0.00,meteohub,2013-12-21 05:12:00,
2013-12-21 00:17:00,35.4,34.3,-100.00,SE,131,0.0,2.0,96,0.02,,,0.00,meteohub,2013-12-21 05:17:00,
2013-12-21 00:22:00,35.4,34.3,-100.00,SE,137,0.0,2.0,96,0.03,,,0.01,meteohub,2013-12-21 05:22:00,
2013-12-21 00:27:00,35.4,34.3,-100.00,SSE,158,0.0,2.0,96,0.03,,,0.01,meteohub,2013-12-21 05:27:00,
2013-12-21 00:32:00,35.4,34.3,-100.00,East,96,0.0,1.0,96,0.02,,,0.01,meteohub,2013-12-21 05:32:00,
2013-12-21 00:37:00,35.4,34.3,-100.00,SE,132,0.0,1.0,96,0.02,,,0.01,meteohub,2013-12-21 05:37:00,
2013-12-21 00:42:00,35.4,34.3,-100.00,SE,133,0.0,1.0,96,0.02,,,0.01,meteohub,2013-12-21 05:42:00,
2013-12-21 00:47:00,35.4,34.3,-100.00,SE,133,0.0,1.0,96,0.02,,,0.01,meteohub,2013-12-21 05:47:00,
2013-12-21 00:52:00,35.4,34.3,-100.00,SE,133,0.0,1.0,96,0.02,,,0.01,meteohub,2013-12-21 05:52:00,
2013-12-21 00:57:00,35.4,34.3,-100.00,SE,133,0.0,0.0,96,0.01,,,0.01,meteohub,2013-12-21 05:57:00,
2013-12-21 01:02:00,35.4,34.3,-100.00,SE,131,0.0,0.0,96,0.01,,,0.01,meteohub,2013-12-21 06:02:00,
2013-12-21 01:07:00,35.4,34.3,-100.00,SE,130,0.0,0.0,96,0.01,,,0.01,meteohub,2013-12-21 06:07:00,
2013-12-21 01:12:00,35.4,34.3,-100.00,SE,130,0.0,0.0,96,0.01,,,0.01,meteohub,2013-12-21 06:12:00,
2013-12-21 01:17:00,35.4,34.3,-100.00,SE,130,0.0,0.0,96,0.01,,,0.01,meteohub,2013-12-21 06:17:00,
2013-12-21 01:22:00,35.4,34.3,-100.00,SE,129,0.0,0.0,96,0.01,,,0.02,meteohub,2013-12-21 06:22:00,
2013-12-21 01:27:00,35.4,34.3,-100.00,SE,129,0.0,0.0,96,0.01,,,0.02,meteohub,2013-12-21 06:27:00,
2013-12-21 01:32:00,35.4,34.3,-100.00,SE,129,0.0,0.0,96,0.01,,,0.02,meteohub,2013-12-21 06:32:00,
2013-12-21 01:33:00,35.4,34.3,-100.00,SE,129,0.0,0.0,96,0.01,,,0.02,meteohub,2013-12-21 06:33:00,
2013-12-21 01:38:00,35.2,34.2,-100.00,SE,129,0.0,0.0,96,0.01,,,0.02,meteohub,2013-12-21 06:38:00,
2013-12-21 01:43:00,35.2,34.2,-100.00,SE,129,0.0,0.0,96,0.01,,,0.02,meteohub,2013-12-21 06:43:00,
2013-12-21 01:48:00,35.2,34.2,-100.00,SE,129,0.0,0.0,96,0.01,,,0.02,meteohub,2013-12-21 06:48:00,
2013-12-21 01:53:00,35.2,34.2,-100.00,SE,129,0.0,0.0,96,0.01,,,0.02,meteohub,2013-12-21 06:53:00,
2013-12-21 01:58:00,35.2,34.2,-100.00,SE,129,0.0,0.0,96,0.01,,,0.02,meteohub,2013-12-21 06:58:00,
2013-12-21 02:03:00,35.2,34.2,-100.00,SE,129,0.0,0.0,96,0.01,,,0.02,meteohub,2013-12-21 07:03:00,
2013-12-21 02:08:00,35.2,34.2,-100.00,SE,129,0.0,0.0,96,0.01,,,0.02,meteohub,2013-12-21 07:08:00,
2013-12-21 02:13:00,35.4,34.3,-100.00,SE,128,0.0,0.0,96,0.01,,,0.02,meteohub,2013-12-21 07:13:00,
2013-12-21 02:18:00,35.6,34.5,-100.00,ESE,122,0.0,0.0,96,0.01,,,0.02,meteohub,2013-12-21 07:18:00,
2013-12-21 02:23:00,35.6,34.5,-100.00,ESE,120,0.0,0.0,96,0.00,,,0.02,meteohub,2013-12-21 07:23:00,
2013-12-21 02:28:00,35.6,34.5,-100.00,ESE,106,0.0,0.0,96,0.00,,,0.02,meteohub,2013-12-21 07:28:00,
2013-12-21 02:33:00,35.6,34.5,-100.00,ESE,108,0.0,0.0,96,0.00,,,0.02,meteohub,2013-12-21 07:33:00,
2013-12-21 02:38:00,35.4,34.3,-100.00,ESE,108,0.0,0.0,96,0.00,,,0.02,meteohub,2013-12-21 07:38:00,
2013-12-21 02:43:00,35.6,34.5,-100.00,ESE,108,0.0,0.0,96,0.00,,,0.02,meteohub,2013-12-21 07:43:00,
2013-12-21 02:48:00,35.4,34.3,-100.00,ESE,108,0.0,0.0,96,0.00,,,0.02,meteohub,2013-12-21 07:48:00,
2013-12-21 02:53:00,35.4,34.3,-100.00,ESE,108,0.0,0.0,96,0.00,,,0.02,meteohub,2013-12-21 07:53:00,
2013-12-21 02:58:00,35.4,34.3,-100.00,ESE,107,0.0,0.0,96,0.00,,,0.02,meteohub,2013-12-21 07:58:00,
2013-12-21 03:03:00,35.2,34.2,-100.00,SSW,209,0.0,0.0,96,0.00,,,0.02,meteohub,2013-12-21 08:03:00,
2013-12-21 03:08:00,35.4,34.3,-100.00,SSW,209,0.0,0.0,96,0.00,,,0.02,meteohub,2013-12-21 08:08:00,
2013-12-21 03:13:00,35.2,34.2,-100.00,SSW,209,0.0,0.0,96,0.00,,,0.02,meteohub,2013-12-21 08:13:00,
2013-12-21 03:18:00,35.2,34.2,-100.00,SSW,209,0.0,0.0,96,0.00,,,0.02,meteohub,2013-12-21 08:18:00,
2013-12-21 03:23:00,35.1,34.0,-100.00,NNW,340,2.0,0.0,96,0.00,,,0.02,meteohub,2013-12-21 08:23:00,
2013-12-21 03:28:00,35.2,34.2,-100.00,NNW,339,1.0,4.0,96,0.00,,,0.02,meteohub,2013-12-21 08:28:00,
2013-12-21 03:33:00,35.1,34.0,-100.00,North,6,3.0,4.0,96,0.00,,,0.02,meteohub,2013-12-21 08:33:00,
2013-12-21 03:38:00,35.1,34.0,-100.00,North,349,2.0,4.0,96,0.00,,,0.02,meteohub,2013-12-21 08:38:00,
2013-12-21 03:43:00,35.1,34.0,-100.00,NNW,335,1.0,4.0,96,0.00,,,0.02,meteohub,2013-12-21 08:43:00,
2013-12-21 03:48:00,35.1,34.0,-100.00,NNE,13,0.0,4.0,96,0.00,,,0.02,meteohub,2013-12-21 08:48:00,
2013-12-21 03:53:00,35.1,34.0,-100.00,NNE,13,0.0,4.0,96,0.00,,,0.02,meteohub,2013-12-21 08:53:00,
2013-12-21 03:58:00,35.1,34.0,-100.00,NNE,13,0.0,3.0,96,0.00,,,0.02,meteohub,2013-12-21 08:58:00,
2013-12-21 04:03:00,35.1,34.0,-100.00,SW,224,0.0,1.0,96,0.00,,,0.02,meteohub,2013-12-21 09:03:00,
2013-12-21 04:08:00,35.1,34.0,-100.00,SW,224,0.0,1.0,96,0.00,,,0.02,meteohub,2013-12-21 09:08:00,
2013-12-21 04:13:00,34.9,33.8,-100.00,SW,224,0.0,1.0,96,0.00,,,0.02,meteohub,2013-12-21 09:13:00,
2013-12-21 04:19:00,34.9,33.8,-100.00,SW,224,0.0,1.0,96,0.00,,,0.02,meteohub,2013-12-21 09:19:00,
2013-12-21 04:24:00,34.7,33.6,-100.00,SW,224,0.0,0.0,96,0.00,,,0.02,meteohub,2013-12-21 09:24:00,
2013-12-21 04:29:00,34.7,33.6,-100.00,SW,224,0.0,0.0,96,0.00,,,0.02,meteohub,2013-12-21 09:29:00,
2013-12-21 04:34:00,34.5,33.4,-100.00,SW,224,0.0,0.0,96,0.00,,,0.02,meteohub,2013-12-21 09:34:00,
2013-12-21 04:39:00,34.5,33.4,-100.00,SW,225,1.0,0.0,96,0.00,,,0.02,meteohub,2013-12-21 09:39:00,
2013-12-21 04:44:00,34.5,33.4,-100.00,WSW,241,0.0,2.0,96,0.00,,,0.02,meteohub,2013-12-21 09:44:00,
2013-12-21 04:49:00,34.3,33.3,-100.00,WNW,302,0.0,2.0,96,0.00,,,0.02,meteohub,2013-12-21 09:49:00,
2013-12-21 04:54:00,34.3,33.3,-100.00,WNW,301,0.0,2.0,96,0.00,,,0.02,meteohub,2013-12-21 09:54:00,
2013-12-21 04:59:00,34.3,33.3,-100.00,WNW,288,0.0,1.0,96,0.00,,,0.02,meteohub,2013-12-21 09:59:00,
2013-12-21 05:04:00,34.3,33.3,-100.00,SSE,163,0.0,1.0,96,0.00,,,0.02,meteohub,2013-12-21 10:04:00,
2013-12-21 05:09:00,34.3,33.3,-100.00,WSW,255,0.0,1.0,96,0.00,,,0.02,meteohub,2013-12-21 10:09:00,
2013-12-21 05:14:00,34.3,33.3,-100.00,WSW,244,0.0,2.0,96,0.00,,,0.02,meteohub,2013-12-21 10:14:00,
2013-12-21 05:19:00,34.3,33.3,-100.00,SW,236,0.0,2.0,96,0.00,,,0.02,meteohub,2013-12-21 10:19:00,
2013-12-21 05:24:00,34.3,33.3,-100.00,SW,236,0.0,2.0,96,0.00,,,0.02,meteohub,2013-12-21 10:24:00,
2013-12-21 05:29:00,34.3,33.3,-100.00,SSE,160,0.0,2.0,96,0.00,,,0.02,meteohub,2013-12-21 10:29:00,
2013-12-21 05:34:00,34.5,33.4,-100.00,SSE,159,0.0,1.0,96,0.00,,,0.02,meteohub,2013-12-21 10:34:00,
2013-12-21 05:39:00,34.5,33.4,-100.00,SSE,160,0.0,0.0,96,0.00,,,0.02,meteohub,2013-12-21 10:39:00,
2013-12-21 05:44:00,34.5,33.4,-100.00,NNW,333,2.0,0.0,96,0.00,,,0.02,meteohub,2013-12-21 10:44:00,
2013-12-21 05:49:00,34.5,33.4,-100.00,NNW,345,0.0,3.0,96,0.00,,,0.02,meteohub,2013-12-21 10:49:00,
2013-12-21 05:54:00,34.3,33.3,-100.00,NNW,342,1.0,3.0,96,0.00,,,0.02,meteohub,2013-12-21 10:54:00,
2013-12-21 05:59:00,34.3,33.3,-100.00,NW,316,1.0,3.0,96,0.00,,,0.02,meteohub,2013-12-21 10:59:00,
2013-12-21 06:04:00,34.3,33.3,-100.00,NNW,342,0.0,2.0,96,0.00,,,0.02,meteohub,2013-12-21 11:04:00,
2013-12-21 06:09:00,34.3,33.3,-100.00,NW,316,0.0,2.0,96,0.00,,,0.02,meteohub,2013-12-21 11:09:00,
2013-12-21 06:14:00,34.3,33.3,-100.00,WSW,244,0.0,2.0,96,0.00,,,0.02,meteohub,2013-12-21 11:14:00,
2013-12-21 06:19:00,34.3,33.3,-100.00,West,278,0.0,1.0,96,0.00,,,0.02,meteohub,2013-12-21 11:19:00,
2013-12-21 06:24:00,34.3,33.3,-100.00,WNW,298,1.0,1.0,96,0.00,,,0.02,meteohub,2013-12-21 11:24:00,
2013-12-21 06:29:00,34.2,33.1,-100.00,WNW,285,1.0,2.0,96,0.01,,,0.03,meteohub,2013-12-21 11:29:00,
2013-12-21 06:34:00,34.3,33.3,-100.00,NW,323,1.0,3.0,96,0.01,,,0.03,meteohub,2013-12-21 11:34:00,
2013-12-21 06:39:00,34.5,33.4,-100.00,NNW,336,1.0,3.0,96,0.01,,,0.03,meteohub,2013-12-21 11:39:00,
2013-12-21 06:44:00,34.5,33.4,-100.00,NNW,328,1.0,3.0,96,0.01,,,0.03,meteohub,2013-12-21 11:44:00,
2013-12-21 06:49:00,34.5,33.4,-100.00,NNW,340,0.0,3.0,96,0.01,,,0.03,meteohub,2013-12-21 11:49:00,
2013-12-21 06:54:00,34.5,33.4,-100.00,NNW,340,0.0,1.0,96,0.01,,,0.03,meteohub,2013-12-21 11:54:00,
2013-12-21 07:00:00,34.5,33.4,-100.00,ESE,105,0.0,1.0,96,0.02,,,0.04,meteohub,2013-12-21 12:00:00,
2013-12-21 07:05:00,34.9,34.2,-100.00,SW,227,1.0,1.0,97,0.02,,,0.04,meteohub,2013-12-21 12:05:00,
2013-12-21 07:10:00,35.1,34.3,-100.00,ESE,109,0.0,3.0,97,0.02,,,0.04,meteohub,2013-12-21 12:10:00,
2013-12-21 07:15:00,34.9,34.2,-100.00,SSE,153,0.0,3.0,97,0.02,,,0.04,meteohub,2013-12-21 12:15:00,
2013-12-21 07:20:00,35.1,34.3,-100.00,SW,214,0.0,3.0,97,0.03,,,0.05,meteohub,2013-12-21 12:20:00,
2013-12-21 07:25:00,35.1,34.3,-100.00,ESE,112,2.0,2.0,97,0.03,,,0.05,meteohub,2013-12-21 12:25:00,
2013-12-21 07:30:00,35.2,34.5,-100.00,ENE,70,0.0,0.0,97,0.02,,,0.05,meteohub,2013-12-21 12:30:00,
2013-12-21 07:35:00,35.2,34.5,-100.00,East,84,1.0,2.0,97,0.02,,,0.05,meteohub,2013-12-21 12:35:00,
2013-12-21 07:40:00,35.4,34.7,-100.00,ENE,72,0.0,2.0,97,0.02,,,0.05,meteohub,2013-12-21 12:40:00,
2013-12-21 07:45:00,35.4,34.7,-100.00,NE,36,0.0,2.0,97,0.02,,,0.05,meteohub,2013-12-21 12:45:00,
2013-12-21 07:50:00,35.4,34.7,-100.00,North,358,1.0,2.0,97,0.02,,,0.05,meteohub,2013-12-21 12:50:00,
2013-12-21 07:55:00,35.4,34.7,-100.00,ESE,120,0.0,4.0,97,0.02,,,0.05,meteohub,2013-12-21 12:55:00,
2013-12-21 08:00:00,35.4,34.7,-100.00,ESE,123,0.0,4.0,97,0.01,,,0.05,meteohub,2013-12-21 13:00:00,
2013-12-21 08:05:00,35.4,34.7,-100.00,SE,124,0.0,4.0,97,0.01,,,0.05,meteohub,2013-12-21 13:05:00,
2013-12-21 08:10:00,35.4,34.7,-100.00,SSE,158,0.0,2.0,97,0.01,,,0.05,meteohub,2013-12-21 13:10:00,
2013-12-21 08:15:00,35.6,34.9,-100.00,SE,142,0.0,0.0,97,0.01,,,0.05,meteohub,2013-12-21 13:15:00,
2013-12-21 08:20:00,35.6,34.9,-100.00,SSW,193,0.0,0.0,97,0.00,,,0.05,meteohub,2013-12-21 13:20:00,
2013-12-21 08:25:00,35.8,35.1,-100.00,ESE,110,0.0,0.0,97,0.00,,,0.05,meteohub,2013-12-21 13:25:00,
2013-12-21 08:30:00,35.8,35.1,-100.00,East,91,0.0,0.0,97,0.00,,,0.05,meteohub,2013-12-21 13:30:00,
2013-12-21 08:35:00,36.0,35.2,-100.00,South,169,0.0,0.0,97,0.00,,,0.05,meteohub,2013-12-21 13:35:00,
2013-12-21 08:40:00,36.0,35.2,-100.00,SSE,168,0.0,0.0,97,0.00,,,0.05,meteohub,2013-12-21 13:40:00,
2013-12-21 08:45:00,36.0,35.2,-100.00,SE,128,0.0,0.0,97,0.00,,,0.05,meteohub,2013-12-21 13:45:00,
2013-12-21 08:50:00,36.0,35.2,-100.00,North,359,3.0,0.0,97,0.00,,,0.05,meteohub,2013-12-21 13:50:00,
2013-12-21 08:55:00,36.0,35.2,-100.00,North,352,1.0,0.0,97,0.00,,,0.05,meteohub,2013-12-21 13:55:00,
2013-12-21 09:00:00,35.8,35.1,-100.00,NNE,18,0.0,5.0,97,0.01,,,0.06,meteohub,2013-12-21 14:00:00,
2013-12-21 09:05:00,35.8,34.7,-100.00,NNE,15,2.0,5.0,96,0.01,,,0.06,meteohub,2013-12-21 14:05:00,
2013-12-21 09:10:00,35.6,34.5,-100.00,North,7,2.0,5.0,96,0.01,,,0.06,meteohub,2013-12-21 14:10:00,
2013-12-21 09:15:00,35.6,34.5,-100.00,NNW,340,0.0,3.0,96,0.01,,,0.06,meteohub,2013-12-21 14:15:00,
2013-12-21 09:20:00,35.6,34.5,-100.00,NNW,340,0.0,3.0,96,0.01,,,0.06,meteohub,2013-12-21 14:20:00,
2013-12-21 09:25:00,35.4,34.3,-100.00,NNW,340,0.0,2.0,96,0.01,,,0.06,meteohub,2013-12-21 14:25:00,
2013-12-21 09:30:00,35.4,34.3,-100.00,NNW,337,0.0,1.0,96,0.01,,,0.06,meteohub,2013-12-21 14:30:00,
2013-12-21 09:35:00,35.6,34.5,-100.00,NNW,338,0.0,2.0,96,0.01,,,0.06,meteohub,2013-12-21 14:35:00,
2013-12-21 09:41:00,35.8,34.7,-100.00,SSW,202,0.0,2.0,96,0.01,,,0.06,meteohub,2013-12-21 14:41:00,
2013-12-21 09:46:00,35.8,35.1,-100.00,SSW,202,0.0,1.0,97,0.01,,,0.06,meteohub,2013-12-21 14:46:00,
2013-12-21 09:51:00,35.6,34.5,-100.00,NW,323,2.0,0.0,96,0.01,,,0.06,meteohub,2013-12-21 14:51:00,
2013-12-21 09:56:00,35.4,34.3,-100.00,NW,326,0.0,2.0,96,0.01,,,0.06,meteohub,2013-12-21 14:56:00,
2013-12-21 10:01:00,35.4,34.3,-100.00,North,1,0.0,4.0,96,0.00,,,0.06,meteohub,2013-12-21 15:01:00,
2013-12-21 10:06:00,35.4,34.3,-100.00,NNW,345,1.0,4.0,96,0.00,,,0.06,meteohub,2013-12-21 15:06:00,
2013-12-21 10:11:00,35.4,34.3,-100.00,North,350,0.0,4.0,96,0.00,,,0.06,meteohub,2013-12-21 15:11:00,
2013-12-21 10:16:00,35.2,34.2,-100.00,NW,323,0.0,2.0,96,0.00,,,0.06,meteohub,2013-12-21 15:16:00,
2013-12-21 10:21:00,35.2,34.2,-100.00,NW,326,0.0,2.0,96,0.00,,,0.06,meteohub,2013-12-21 15:21:00,
2013-12-21 10:26:00,35.2,34.2,-100.00,NW,326,0.0,2.0,96,0.00,,,0.06,meteohub,2013-12-21 15:26:00,
2013-12-21 10:31:00,35.2,34.2,-100.00,NW,326,0.0,2.0,96,0.00,,,0.06,meteohub,2013-12-21 15:31:00,
2013-12-21 10:36:00,35.2,34.2,-100.00,NW,326,0.0,2.0,96,0.00,,,0.06,meteohub,2013-12-21 15:36:00,
2013-12-21 10:41:00,35.2,34.2,-100.00,NNW,328,0.0,0.0,96,0.00,,,0.06,meteohub,2013-12-21 15:41:00,
2013-12-21 10:46:00,35.2,34.2,-100.00,NNW,328,0.0,0.0,96,0.00,,,0.06,meteohub,2013-12-21 15:46:00,
2013-12-21 10:51:00,35.2,34.2,-100.00,NNW,328,0.0,0.0,96,0.01,,,0.07,meteohub,2013-12-21 15:51:00,
2013-12-21 10:56:00,35.2,34.2,-100.00,NNW,328,0.0,0.0,96,0.01,,,0.07,meteohub,2013-12-21 15:56:00,
2013-12-21 11:01:00,35.2,34.2,-100.00,NNW,328,0.0,0.0,96,0.01,,,0.07,meteohub,2013-12-21 16:01:00,
2013-12-21 11:06:00,35.2,34.2,-100.00,NNW,343,0.0,0.0,96,0.02,,,0.08,meteohub,2013-12-21 16:06:00,
2013-12-21 11:11:00,35.2,34.2,-100.00,North,350,0.0,0.0,96,0.02,,,0.08,meteohub,2013-12-21 16:11:00,
2013-12-21 11:16:00,35.2,34.2,-100.00,North,350,0.0,0.0,96,0.03,,,0.09,meteohub,2013-12-21 16:16:00,
2013-12-21 11:21:00,35.2,34.2,-100.00,NNE,13,0.0,1.0,96,0.03,,,0.09,meteohub,2013-12-21 16:21:00,
2013-12-21 11:26:00,35.2,34.2,-100.00,North,4,0.0,2.0,96,0.04,,,0.10,meteohub,2013-12-21 16:26:00,
2013-12-21 11:31:00,35.4,34.3,-100.00,NNE,18,0.0,2.0,96,0.05,,,0.11,meteohub,2013-12-21 16:31:00,
2013-12-21 11:36:00,35.6,34.5,-100.00,NNE,25,0.0,2.0,96,0.05,,,0.11,meteohub,2013-12-21 16:36:00,
2013-12-21 11:41:00,35.8,35.1,-100.00,NE,34,1.0,3.0,97,0.06,,,0.12,meteohub,2013-12-21 16:41:00,
2013-12-21 11:46:00,35.8,35.1,-100.00,NNE,29,0.0,3.0,97,0.05,,,0.12,meteohub,2013-12-21 16:46:00,
2013-12-21 11:51:00,36.0,35.2,-100.00,NE,55,0.0,3.0,97,0.06,,,0.13,meteohub,2013-12-21 16:51:00,
2013-12-21 11:56:00,36.0,35.2,-100.00,NE,39,0.0,3.0,97,0.07,,,0.14,meteohub,2013-12-21 16:56:00,
2013-12-21 12:01:00,35.8,35.1,-100.00,NNE,27,0.0,1.0,97,0.07,,,0.14,meteohub,2013-12-21 17:01:00,
2013-12-21 12:06:00,35.8,35.1,-100.00,NNE,16,0.0,3.0,97,0.06,,,0.14,meteohub,2013-12-21 17:06:00,
2013-12-21 12:11:00,35.8,35.1,-100.00,South,174,0.0,5.0,97,0.07,,,0.15,meteohub,2013-12-21 17:11:00,
2013-12-21 12:16:00,35.8,35.1,-100.00,NNW,335,0.0,5.0,97,0.06,,,0.15,meteohub,2013-12-21 17:16:00,
2013-12-21 12:21:00,35.8,34.7,-100.00,NNW,330,0.0,4.0,96,0.07,,,0.16,meteohub,2013-12-21 17:21:00,
2013-12-21 12:26:00,35.8,34.7,-100.00,ENE,67,0.0,4.0,96,0.06,,,0.16,meteohub,2013-12-21 17:26:00,
2013-12-21 12:31:00,35.8,34.7,-100.00,ENE,68,0.0,4.0,96,0.05,,,0.16,meteohub,2013-12-21 17:31:00,
2013-12-21 12:36:00,36.0,34.9,-100.00,ENE,67,0.0,0.0,96,0.05,,,0.17,meteohub,2013-12-21 17:36:00,
2013-12-21 12:41:00,35.8,34.7,-100.00,ENE,68,0.0,0.0,96,0.05,,,0.17,meteohub,2013-12-21 17:41:00,
2013-12-21 12:46:00,35.8,34.7,-100.00,ENE,72,0.0,0.0,96,0.05,,,0.18,meteohub,2013-12-21 17:46:00,
2013-12-21 12:51:00,35.8,34.7,-100.00,ENE,72,0.0,0.0,96,0.05,,,0.18,meteohub,2013-12-21 17:51:00,
2013-12-21 12:56:00,35.8,34.7,-100.00,ENE,72,0.0,0.0,96,0.05,,,0.19,meteohub,2013-12-21 17:56:00,
2013-12-21 13:01:00,35.8,34.7,-100.00,NNE,31,0.0,0.0,96,0.05,,,0.19,meteohub,2013-12-21 18:01:00,
2013-12-21 13:06:00,35.8,34.7,-100.00,NNE,32,0.0,0.0,96,0.04,,,0.19,meteohub,2013-12-21 18:06:00,
2013-12-21 13:11:00,35.8,34.7,-100.00,East,95,0.0,3.0,96,0.05,,,0.20,meteohub,2013-12-21 18:11:00,
2013-12-21 13:16:00,35.8,34.7,-100.00,East,99,0.0,3.0,96,0.04,,,0.20,meteohub,2013-12-21 18:16:00,
2013-12-21 13:21:00,36.0,34.9,-100.00,ENE,60,1.0,3.0,96,0.05,,,0.21,meteohub,2013-12-21 18:21:00,
2013-12-21 13:26:00,36.0,34.9,-100.00,East,99,0.0,2.0,96,0.05,,,0.21,meteohub,2013-12-21 18:26:00,
2013-12-21 13:31:00,36.0,34.9,-100.00,NE,54,0.0,2.0,96,0.05,,,0.22,meteohub,2013-12-21 18:31:00,
2013-12-21 13:37:00,36.0,34.9,-100.00,NE,54,0.0,2.0,96,0.05,,,0.22,meteohub,2013-12-21 18:37:00,
2013-12-21 13:42:00,36.0,34.9,-100.00,NE,53,0.0,1.0,96,0.05,,,0.22,meteohub,2013-12-21 18:42:00,
2013-12-21 13:47:00,35.8,34.7,-100.00,NNE,13,0.0,1.0,96,0.05,,,0.23,meteohub,2013-12-21 18:47:00,
2013-12-21 13:52:00,35.6,34.5,-100.00,North,359,1.0,2.0,96,0.05,,,0.23,meteohub,2013-12-21 18:52:00,
2013-12-21 13:57:00,35.4,34.3,-100.00,North,10,0.0,2.0,96,0.04,,,0.23,meteohub,2013-12-21 18:57:00,
2013-12-21 14:02:00,35.4,34.3,-100.00,North,9,0.0,2.0,96,0.04,,,0.23,meteohub,2013-12-21 19:02:00,
2013-12-21 14:07:00,35.4,34.3,-100.00,NNE,13,0.0,3.0,96,0.03,,,0.23,meteohub,2013-12-21 19:07:00,
2013-12-21 14:12:00,35.2,34.2,-100.00,NNE,15,1.0,3.0,96,0.03,,,0.23,meteohub,2013-12-21 19:12:00,
2013-12-21 14:17:00,35.2,34.2,-100.00,East,79,1.0,3.0,96,0.03,,,0.23,meteohub,2013-12-21 19:17:00,
2013-12-21 14:22:00,35.2,34.2,-100.00,NNE,15,3.0,3.0,96,0.03,,,0.24,meteohub,2013-12-21 19:22:00,
2013-12-21 14:27:00,35.1,34.0,-100.00,NE,34,1.0,4.0,96,0.03,,,0.24,meteohub,2013-12-21 19:27:00,
2013-12-21 14:32:00,34.9,33.8,-100.00,East,89,2.0,4.0,96,0.02,,,0.24,meteohub,2013-12-21 19:32:00,
2013-12-21 14:37:00,34.9,33.8,-100.00,NW,321,1.0,4.0,96,0.03,,,0.25,meteohub,2013-12-21 19:37:00,
2013-12-21 14:42:00,34.9,33.8,-100.00,NE,45,0.0,4.0,96,0.02,,,0.25,meteohub,2013-12-21 19:42:00,
2013-12-21 14:47:00,34.9,33.8,-100.00,NNE,19,0.0,4.0,96,0.02,,,0.25,meteohub,2013-12-21 19:47:00,
2013-12-21 14:52:00,34.9,33.8,-100.00,NE,36,0.0,4.0,96,0.02,,,0.25,meteohub,2013-12-21 19:52:00,
2013-12-21 14:57:00,34.9,33.8,-100.00,ENE,68,0.0,2.0,96,0.02,,,0.25,meteohub,2013-12-21 19:57:00,
2013-12-21 15:02:00,34.9,33.8,-100.00,East,92,0.0,2.0,96,0.03,,,0.26,meteohub,2013-12-21 20:02:00,
2013-12-21 15:07:00,34.9,33.8,-100.00,East,82,0.0,2.0,96,0.03,,,0.26,meteohub,2013-12-21 20:07:00,
2013-12-21 15:12:00,34.9,33.8,-100.00,NW,325,0.0,0.0,96,0.03,,,0.26,meteohub,2013-12-21 20:12:00,
2013-12-21 15:17:00,34.9,33.8,-100.00,ENE,57,0.0,0.0,96,0.02,,,0.26,meteohub,2013-12-21 20:17:00,
2013-12-21 15:22:00,34.9,33.8,-100.00,ENE,71,0.0,2.0,96,0.03,,,0.27,meteohub,2013-12-21 20:22:00,
2013-12-21 15:27:00,34.9,33.8,-100.00,NW,323,0.0,2.0,96,0.03,,,0.27,meteohub,2013-12-21 20:27:00,
2013-12-21 15:32:00,34.9,33.8,-100.00,North,1,0.0,2.0,96,0.03,,,0.27,meteohub,2013-12-21 20:32:00,
2013-12-21 15:37:00,34.9,33.8,-100.00,NNE,20,0.0,1.0,96,0.02,,,0.27,meteohub,2013-12-21 20:37:00,
2013-12-21 15:42:00,34.9,33.8,-100.00,NNE,19,0.0,1.0,96,0.02,,,0.27,meteohub,2013-12-21 20:42:00,
2013-12-21 15:47:00,34.9,33.8,-100.00,ENE,73,2.0,3.0,96,0.03,,,0.28,meteohub,2013-12-21 20:47:00,
2013-12-21 15:52:00,34.9,33.8,-100.00,NNE,23,2.0,3.0,96,0.03,,,0.28,meteohub,2013-12-21 20:52:00,
2013-12-21 15:58:00,34.7,33.6,-100.00,NE,39,0.0,2.0,96,0.03,,,0.28,meteohub,2013-12-21 20:58:00,
2013-12-21 16:03:00,34.7,33.6,-100.00,ESE,116,0.0,2.0,96,0.03,,,0.29,meteohub,2013-12-21 21:03:00,
2013-12-21 16:08:00,34.7,33.6,-100.00,NE,55,0.0,2.0,96,0.03,,,0.29,meteohub,2013-12-21 21:08:00,
2013-12-21 16:13:00,34.7,33.6,-100.00,NE,44,0.0,0.0,96,0.04,,,0.30,meteohub,2013-12-21 21:13:00,
2013-12-21 16:18:00,34.5,33.4,-100.00,NE,44,0.0,0.0,96,0.04,,,0.30,meteohub,2013-12-21 21:18:00,
2013-12-21 16:23:00,34.5,33.4,-100.00,NE,34,0.0,0.0,96,0.03,,,0.30,meteohub,2013-12-21 21:23:00,
2013-12-21 16:28:00,34.5,33.4,-100.00,NNE,18,0.0,0.0,96,0.03,,,0.30,meteohub,2013-12-21 21:28:00,
2013-12-21 16:33:00,34.5,33.4,-100.00,East,84,0.0,3.0,96,0.03,,,0.30,meteohub,2013-12-21 21:33:00,
2013-12-21 16:38:00,34.5,33.4,-100.00,ENE,72,0.0,3.0,96,0.04,,,0.31,meteohub,2013-12-21 21:38:00,
2013-12-21 16:43:00,34.5,33.4,-100.00,ENE,60,0.0,3.0,96,0.04,,,0.32,meteohub,2013-12-21 21:43:00,
2013-12-21 16:48:00,34.5,33.4,-100.00,ENE,62,0.0,1.0,96,0.04,,,0.32,meteohub,2013-12-21 21:48:00,
2013-12-21 16:53:00,34.5,33.4,-100.00,NE,44,0.0,2.0,96,0.04,,,0.32,meteohub,2013-12-21 21:53:00,
2013-12-21 16:58:00,34.5,33.4,-100.00,NE,49,0.0,2.0,96,0.04,,,0.33,meteohub,2013-12-21 21:58:00,
2013-12-21 17:03:00,34.5,33.4,-100.00,North,356,0.0,2.0,96,0.04,,,0.33,meteohub,2013-12-21 22:03:00,
2013-12-21 17:08:00,34.5,33.4,-100.00,ENE,71,0.0,2.0,96,0.04,,,0.34,meteohub,2013-12-21 22:08:00,
2013-12-21 17:13:00,34.5,33.4,-100.00,East,88,0.0,2.0,96,0.04,,,0.34,meteohub,2013-12-21 22:13:00,
2013-12-21 17:18:00,34.5,33.4,-100.00,East,88,0.0,1.0,96,0.05,,,0.35,meteohub,2013-12-21 22:18:00,
2013-12-21 17:23:00,34.5,33.4,-100.00,ESE,122,0.0,0.0,96,0.05,,,0.35,meteohub,2013-12-21 22:23:00,
2013-12-21 17:28:00,34.5,33.4,-100.00,ESE,103,0.0,3.0,96,0.06,,,0.36,meteohub,2013-12-21 22:28:00,
2013-12-21 17:33:00,34.3,33.3,-100.00,ESE,103,0.0,3.0,96,0.05,,,0.36,meteohub,2013-12-21 22:33:00,
2013-12-21 17:38:00,34.3,33.3,-100.00,ESE,109,0.0,3.0,96,0.05,,,0.36,meteohub,2013-12-21 22:38:00,
2013-12-21 17:43:00,34.3,33.3,-100.00,ESE,116,0.0,2.0,96,0.05,,,0.37,meteohub,2013-12-21 22:43:00,
2013-12-21 17:48:00,34.3,33.3,-100.00,North,353,0.0,2.0,96,0.06,,,0.38,meteohub,2013-12-21 22:48:00,
2013-12-21 17:53:00,34.3,33.3,-100.00,North,354,0.0,2.0,96,0.05,,,0.38,meteohub,2013-12-21 22:53:00,
2013-12-21 17:58:00,34.3,33.3,-100.00,NE,44,0.0,0.0,96,0.06,,,0.39,meteohub,2013-12-21 22:58:00,
2013-12-21 18:03:00,34.3,33.3,-100.00,East,91,0.0,0.0,96,0.07,,,0.40,meteohub,2013-12-21 23:03:00,
2013-12-21 18:08:00,34.3,33.3,-100.00,East,98,0.0,0.0,96,0.07,,,0.41,meteohub,2013-12-21 23:08:00,
2013-12-21 18:13:00,34.3,33.3,-100.00,East,98,0.0,0.0,96,0.07,,,0.41,meteohub,2013-12-21 23:13:00,
2013-12-21 18:18:00,34.3,33.3,-100.00,NNE,18,0.0,0.0,96,0.07,,,0.42,meteohub,2013-12-21 23:18:00,
2013-12-21 18:23:00,34.3,33.3,-100.00,North,1,0.0,0.0,96,0.08,,,0.43,meteohub,2013-12-21 23:23:00,
2013-12-21 18:28:00,34.3,33.3,-100.00,North,1,0.0,0.0,96,0.07,,,0.43,meteohub,2013-12-21 23:28:00,
2013-12-21 18:33:00,34.3,33.3,-100.00,NE,46,0.0,0.0,96,0.08,,,0.44,meteohub,2013-12-21 23:33:00,
2013-12-21 18:38:00,34.3,33.3,-100.00,NE,46,0.0,0.0,96,0.08,,,0.45,meteohub,2013-12-21 23:38:00,
2013-12-21 18:43:00,34.3,33.3,-100.00,NNE,32,0.0,0.0,96,0.07,,,0.45,meteohub,2013-12-21 23:43:00,
2013-12-21 18:48:00,34.3,33.6,-100.00,NE,51,0.0,0.0,97,0.08,,,0.46,meteohub,2013-12-21 23:48:00,
2013-12-21 18:53:00,34.3,33.6,-100.00,ENE,70,0.0,0.0,97,0.08,,,0.47,meteohub,2013-12-21 23:53:00,
2013-12-21 18:58:00,34.3,33.6,-100.00,ENE,60,0.0,0.0,97,0.08,,,0.47,meteohub,2013-12-21 23:58:00,
2013-12-21 19:03:00,34.3,33.6,-100.00,ESE,103,0.0,2.0,97,0.08,,,0.48,meteohub,2013-12-22 00:03:00,
2013-12-21 19:08:00,34.3,33.3,-100.00,NNE,18,3.0,3.0,96,0.07,,,0.48,meteohub,2013-12-22 00:08:00,
2013-12-21 19:13:00,34.3,33.3,-100.00,ESE,104,0.0,4.0,96,0.06,,,0.48,meteohub,2013-12-22 00:13:00,
2013-12-21 19:18:00,34.2,33.1,-100.00,SE,124,0.0,4.0,96,0.06,,,0.48,meteohub,2013-12-22 00:18:00,
2013-12-21 19:24:00,34.2,33.1,-100.00,East,86,0.0,4.0,96,0.05,,,0.48,meteohub,2013-12-22 00:24:00,
2013-12-21 19:29:00,34.0,32.9,-100.00,East,92,2.0,5.0,96,0.04,,,0.48,meteohub,2013-12-22 00:29:00,
2013-12-21 19:34:00,34.0,32.9,-100.00,SE,141,2.0,5.0,96,0.04,,,0.48,meteohub,2013-12-22 00:34:00,
2013-12-21 19:39:00,33.8,32.7,-100.00,WNW,284,0.0,5.0,96,0.03,,,0.48,meteohub,2013-12-22 00:39:00,
2013-12-21 19:44:00,33.6,32.5,-100.00,ENE,74,1.0,4.0,96,0.02,,,0.48,meteohub,2013-12-22 00:44:00,
2013-12-21 19:49:00,33.6,32.5,-100.00,East,82,0.0,4.0,96,0.01,,,0.48,meteohub,2013-12-22 00:49:00,
2013-12-21 19:54:00,33.6,32.5,-100.00,ENE,74,2.0,5.0,96,0.01,,,0.48,meteohub,2013-12-22 00:54:00,
2013-12-21 19:59:00,33.6,32.5,-100.00,ESE,110,3.0,5.0,96,0.01,,,0.49,meteohub,2013-12-22 00:59:00,
2013-12-21 20:04:00,33.4,32.4,-100.00,WNW,293,1.0,5.0,96,0.01,,,0.49,meteohub,2013-12-22 01:04:00,
2013-12-21 20:09:00,33.4,32.4,-100.00,SE,127,0.0,5.0,96,0.01,,,0.49,meteohub,2013-12-22 01:09:00,
2013-12-21 20:14:00,33.4,32.4,-100.00,ENE,60,0.0,5.0,96,0.01,,,0.49,meteohub,2013-12-22 01:14:00,
2013-12-21 20:19:00,33.4,32.4,-100.00,NNW,338,0.0,5.0,96,0.02,,,0.50,meteohub,2013-12-22 01:19:00,
2013-12-21 20:24:00,33.4,32.4,-100.00,East,95,0.0,3.0,96,0.02,,,0.50,meteohub,2013-12-22 01:24:00,
2013-12-21 20:29:00,33.3,32.2,-100.00,NNE,22,2.0,2.0,96,0.02,,,0.50,meteohub,2013-12-22 01:29:00,
2013-12-21 20:34:00,33.3,32.2,-100.00,NNE,31,0.0,5.0,96,0.03,,,0.51,meteohub,2013-12-22 01:34:00,
2013-12-21 20:39:00,33.1,32.0,-100.00,ENE,57,0.0,5.0,96,0.03,,,0.51,meteohub,2013-12-22 01:39:00,
2013-12-21 20:44:00,33.1,32.0,-100.00,East,94,0.0,5.0,96,0.04,,,0.52,meteohub,2013-12-22 01:44:00,
2013-12-21 20:49:00,33.1,32.0,-100.00,NE,54,0.0,4.0,96,0.05,,,0.53,meteohub,2013-12-22 01:49:00,
2013-12-21 20:54:00,32.9,31.8,-100.00,East,81,5.0,5.0,96,0.05,,,0.53,meteohub,2013-12-22 01:54:00,
2013-12-21 20:59:00,32.9,31.8,-100.00,North,11,0.0,5.0,96,0.05,,,0.54,meteohub,2013-12-22 01:59:00,
2013-12-21 21:04:00,32.7,31.6,-100.00,North,8,0.0,5.0,96,0.07,,,0.56,meteohub,2013-12-22 02:04:00,
2013-12-21 21:09:00,32.7,31.6,-100.00,North,8,1.0,5.0,96,0.07,,,0.56,meteohub,2013-12-22 02:09:00,
2013-12-21 21:14:00,32.5,31.5,-100.00,North,10,0.0,4.0,96,0.08,,,0.57,meteohub,2013-12-22 02:14:00,
2013-12-21 21:19:00,32.5,31.5,-100.00,NE,49,0.0,7.0,96,0.08,,,0.58,meteohub,2013-12-22 02:19:00,
2013-12-21 21:24:00,32.5,31.5,-100.00,North,0,2.0,7.0,96,0.08,,,0.58,meteohub,2013-12-22 02:24:00,
2013-12-21 21:29:00,32.4,31.3,-100.00,NE,39,1.0,7.0,96,0.09,,,0.59,meteohub,2013-12-22 02:29:00,
2013-12-21 21:34:00,32.4,31.3,-100.00,ESE,116,4.0,7.0,96,0.09,,,0.60,meteohub,2013-12-22 02:34:00,
2013-12-21 21:39:00,32.4,31.3,-100.00,East,82,1.0,7.0,96,0.10,,,0.61,meteohub,2013-12-22 02:39:00,
2013-12-21 21:44:00,32.4,31.3,-100.00,NE,41,1.0,8.0,96,0.09,,,0.61,meteohub,2013-12-22 02:44:00,
2013-12-21 21:49:00,32.4,31.3,-100.00,South,180,2.0,8.0,96,0.09,,,0.62,meteohub,2013-12-22 02:49:00,
2013-12-21 21:54:00,32.4,31.3,-100.00,WNW,288,0.0,8.0,96,0.08,,,0.62,meteohub,2013-12-22 02:54:00,
2013-12-21 22:00:00,32.5,31.5,-100.00,WNW,293,1.0,7.0,96,0.08,,,0.63,meteohub,2013-12-22 03:00:00,
2013-12-21 22:05:00,32.4,31.3,-100.00,North,354,1.0,8.0,96,0.08,,,0.64,meteohub,2013-12-22 03:05:00,
2013-12-21 22:10:00,32.4,31.3,-100.00,NE,35,2.0,8.0,96,0.08,,,0.65,meteohub,2013-12-22 03:10:00,
2013-12-21 22:15:00,32.4,31.3,-100.00,East,98,2.0,8.0,96,0.09,,,0.66,meteohub,2013-12-22 03:15:00,
2013-12-21 22:20:00,32.2,31.1,-100.00,ENE,75,5.0,8.0,96,0.09,,,0.67,meteohub,2013-12-22 03:20:00,
2013-12-21 22:25:00,32.2,31.1,-100.00,East,98,2.0,8.0,96,0.08,,,0.67,meteohub,2013-12-22 03:25:00,
2013-12-21 22:30:00,32.2,31.1,-100.00,NNW,333,4.0,9.0,96,0.08,,,0.68,meteohub,2013-12-22 03:30:00,
2013-12-21 22:35:00,32.2,31.1,-100.00,ENE,68,0.0,10.0,96,0.08,,,0.68,meteohub,2013-12-22 03:35:00,
2013-12-21 22:40:00,32.2,31.1,-100.00,South,172,1.0,10.0,96,0.07,,,0.68,meteohub,2013-12-22 03:40:00,
2013-12-21 22:45:00,32.2,31.1,-100.00,NNE,16,1.0,10.0,96,0.06,,,0.68,meteohub,2013-12-22 03:45:00,
2013-12-21 22:50:00,32.2,31.1,-100.00,South,171,1.0,8.0,96,0.07,,,0.68,meteohub,2013-12-22 03:50:00,
2013-12-21 22:55:00,32.0,30.9,-100.00,NW,319,0.0,8.0,96,0.07,,,0.70,meteohub,2013-12-22 03:55:00,
2013-12-21 23:00:00,32.0,30.9,-100.00,NW,317,0.0,6.0,96,0.07,,,0.70,meteohub,2013-12-22 04:00:00,
2013-12-21 23:05:00,32.0,30.9,-100.00,NNE,32,2.0,9.0,96,0.06,,,0.70,meteohub,2013-12-22 04:05:00,
2013-12-21 23:10:00,31.8,30.7,-100.00,ESE,107,3.0,9.0,96,0.05,,,0.70,meteohub,2013-12-22 04:10:00,
2013-12-21 23:15:00,31.8,30.7,-100.00,West,274,1.0,7.0,96,0.05,,,0.71,meteohub,2013-12-22 04:15:00,
2013-12-21 23:20:00,31.8,30.7,-100.00,West,278,2.0,7.0,96,0.04,,,0.71,meteohub,2013-12-22 04:20:00,
2013-12-21 23:25:00,31.8,30.7,-100.00,NNE,24,1.0,5.0,96,0.04,,,0.71,meteohub,2013-12-22 04:25:00,
2013-12-21 23:30:00,31.8,30.7,-100.00,ESE,113,6.0,8.0,96,0.03,,,0.71,meteohub,2013-12-22 04:30:00,
2013-12-21 23:35:00,31.6,30.6,-100.00,East,96,6.0,8.0,96,0.03,,,0.71,meteohub,2013-12-22 04:35:00,
2013-12-21 23:40:00,31.6,30.6,-100.00,NNE,13,3.0,9.0,96,0.03,,,0.71,meteohub,2013-12-22 04:40:00,
2013-12-21 23:45:00,31.6,30.6,-100.00,NW,325,3.0,9.0,96,0.04,,,0.72,meteohub,2013-12-22 04:45:00,
2013-12-21 23:50:00,31.6,30.6,-100.00,East,94,0.0,9.0,96,0.03,,,0.72,meteohub,2013-12-22 04:50:00,
2013-12-21 23:55:00,31.6,30.6,-100.00,SSW,210,2.0,9.0,96,0.03,,,0.73,meteohub,2013-12-22 04:55:00,